TimePDT,TemperatureF,Dew PointF,Humidity,Sea Level PressureIn,VisibilityMPH,Wind Direction,Wind SpeedMPH,Gust SpeedMPH,PrecipitationIn,Events,Conditions,WindDirDegrees,DateUTC
12:41 AM,46.4,46.4,100,29.78,0.2,Calm,Calm,-,N/A,Fog,Fog,0,2011-10-06 07:41:00
12:49 AM,46.4,46.4,100,29.78,0.2,Calm,Calm,-,N/A,Fog,Fog,0,2011-10-06 07:49:00
12:53 AM,46.9,46.9,100,29.78,0.2,Calm,Calm,-,N/A,Fog,Fog,0,2011-10-06 07:53:00
1:00 AM,-9999,-9999,N/A,-9999,-9999.0,North,-9999.0,-,N/A,,Unknown,0,2011-10-06 08:00:00
1:18 AM,46.4,46.4,100,29.80,1.0,ENE,3.5,-,N/A,,Overcast,70,2011-10-06 08:18:00
1:24 AM,46.4,44.6,93,29.80,2.5,East,5.8,-,N/A,,Overcast,90,2011-10-06 08:24:00
1:31 AM,46.4,46.4,100,29.80,8.0,ESE,3.5,-,N/A,,Overcast,120,2011-10-06 08:31:00
1:40 AM,46.4,46.4,100,29.80,9.0,Calm,Calm,-,N/A,,Overcast,0,2011-10-06 08:40:00
1:53 AM,46.0,45.0,96,29.81,10.0,Calm,Calm,-,N/A,,Overcast,0,2011-10-06 08:53:00
2:01 AM,46.4,46.4,100,29.81,7.0,Calm,Calm,-,N/A,,Overcast,0,2011-10-06 09:01:00
2:08 AM,46.4,46.4,100,29.81,3.0,Calm,Calm,-,N/A,,Overcast,0,2011-10-06 09:08:00
2:40 AM,46.4,44.6,93,29.82,2.5,Calm,Calm,-,N/A,,Overcast,0,2011-10-06 09:40:00
2:53 AM,46.0,45.0,96,29.82,8.0,Calm,Calm,-,N/A,,Overcast,0,2011-10-06 09:53:00
3:53 AM,45.0,45.0,100,29.83,10.0,Calm,Calm,-,N/A,,Overcast,0,2011-10-06 10:53:00
4:28 AM,42.8,42.8,100,29.84,1.8,Calm,Calm,-,N/A,,Clear,0,2011-10-06 11:28:00
4:33 AM,44.6,42.8,93,29.85,1.0,Calm,Calm,-,N/A,,Mist,0,2011-10-06 11:33:00
4:40 AM,42.8,42.8,100,29.85,0.8,Calm,Calm,-,N/A,,Mist,0,2011-10-06 11:40:00
4:43 AM,42.8,42.8,100,29.85,1.2,Calm,Calm,-,N/A,,Partly Cloudy,0,2011-10-06 11:43:00
4:45 AM,42.8,42.8,100,29.85,2.0,Calm,Calm,-,N/A,,Scattered Clouds,0,2011-10-06 11:45:00
4:53 AM,42.1,42.1,100,29.86,7.0,Calm,Calm,-,N/A,,Scattered Clouds,0,2011-10-06 11:53:00
4:56 AM,42.8,41.0,93,29.86,7.0,Calm,Calm,-,N/A,,Mostly Cloudy,0,2011-10-06 11:56:00
5:00 AM,42.8,42.8,100,29.86,1.0,Calm,Calm,-,N/A,,Mostly Cloudy,0,2011-10-06 12:00:00
5:07 AM,44.6,42.8,93,29.86,0.2,Calm,Calm,-,N/A,Fog,Fog,0,2011-10-06 12:07:00
5:16 AM,42.8,42.8,100,29.86,0.5,Calm,Calm,-,N/A,Fog,Fog,0,2011-10-06 12:16:00
5:29 AM,42.8,42.8,100,29.86,0.2,East,3.5,-,N/A,Fog,Fog,90,2011-10-06 12:29:00
5:33 AM,42.8,42.8,100,29.86,0.5,Calm,Calm,-,N/A,Fog,Fog,0,2011-10-06 12:33:00
5:39 AM,42.8,42.8,100,29.87,1.5,Calm,Calm,-,N/A,,Mostly Cloudy,0,2011-10-06 12:39:00
5:48 AM,42.8,42.8,100,29.87,1.0,Calm,Calm,-,N/A,,Mostly Cloudy,0,2011-10-06 12:48:00
5:53 AM,44.1,43.0,96,29.87,1.2,Calm,Calm,-,N/A,,Mostly Cloudy,0,2011-10-06 12:53:00
6:01 AM,44.6,42.8,93,29.87,1.5,Calm,Calm,-,N/A,,Overcast,0,2011-10-06 13:01:00
6:09 AM,44.6,44.6,100,29.88,3.0,Calm,Calm,-,N/A,,Overcast,0,2011-10-06 13:09:00
6:53 AM,46.0,45.0,96,29.90,10.0,Calm,Calm,-,N/A,,Overcast,0,2011-10-06 13:53:00
7:21 AM,46.4,46.4,100,29.90,10.0,Calm,Calm,-,N/A,,Overcast,0,2011-10-06 14:21:00
7:41 AM,46.4,46.4,100,29.90,10.0,East,3.5,-,N/A,,Overcast,100,2011-10-06 14:41:00
7:53 AM,46.9,46.0,97,29.91,10.0,Calm,Calm,-,N/A,,Overcast,0,2011-10-06 14:53:00
8:53 AM,48.9,48.0,97,29.93,10.0,Calm,Calm,-,N/A,,Overcast,0,2011-10-06 15:53:00
9:40 AM,51.8,50.0,94,29.94,10.0,Calm,Calm,-,N/A,,Overcast,0,2011-10-06 16:40:00
9:53 AM,51.1,50.0,96,29.94,10.0,Calm,Calm,-,N/A,,Overcast,0,2011-10-06 16:53:00
10:50 AM,53.6,51.8,94,29.96,10.0,Calm,Calm,-,N/A,,Overcast,0,2011-10-06 17:50:00
10:53 AM,53.1,51.1,93,29.96,10.0,Calm,Calm,-,N/A,,Overcast,0,2011-10-06 17:53:00
11:16 AM,55.4,51.8,88,29.97,10.0,Variable,3.5,-,N/A,,Overcast,0,2011-10-06 18:16:00
11:42 AM,55.4,51.8,88,29.97,10.0,WSW,5.8,-,N/A,,Overcast,240,2011-10-06 18:42:00
11:53 AM,57.0,51.1,81,29.98,7.0,West,4.6,-,N/A,,Overcast,270,2011-10-06 18:53:00
12:53 PM,57.0,48.9,74,29.99,10.0,WSW,4.6,-,N/A,,Overcast,250,2011-10-06 19:53:00
1:00 PM,-9999,-9999,N/A,-9999,-9999.0,North,-9999.0,-,N/A,,Unknown,0,2011-10-06 20:00:00
1:53 PM,57.9,48.9,72,30.00,10.0,WSW,9.2,-,N/A,,Overcast,250,2011-10-06 20:53:00
2:53 PM,57.0,48.9,74,30.01,10.0,WSW,9.2,-,N/A,,Overcast,240,2011-10-06 21:53:00
3:53 PM,57.0,48.9,74,30.03,10.0,West,5.8,-,N/A,,Overcast,270,2011-10-06 22:53:00
4:53 PM,55.9,50.0,80,30.04,10.0,West,3.5,-,N/A,,Overcast,260,2011-10-06 23:53:00
5:53 PM,55.9,51.1,84,30.04,10.0,WSW,3.5,-,N/A,,Overcast,240,2011-10-07 00:53:00
6:53 PM,54.0,51.1,90,30.06,10.0,Calm,Calm,-,N/A,,Overcast,0,2011-10-07 01:53:00
7:35 PM,53.6,51.8,94,30.06,10.0,Calm,Calm,-,N/A,,Overcast,0,2011-10-07 02:35:00
7:53 PM,53.1,51.1,93,30.07,10.0,Calm,Calm,-,N/A,,Overcast,0,2011-10-07 02:53:00
8:22 PM,53.6,51.8,94,30.07,10.0,Calm,Calm,-,N/A,,Overcast,0,2011-10-07 03:22:00
8:36 PM,53.6,51.8,94,30.06,10.0,Calm,Calm,-,N/A,,Overcast,0,2011-10-07 03:36:00
8:53 PM,53.1,52.0,96,30.07,10.0,Calm,Calm,-,N/A,,Overcast,0,2011-10-07 03:53:00
9:53 PM,53.1,51.1,93,30.07,10.0,Calm,Calm,-,N/A,,Overcast,0,2011-10-07 04:53:00
10:00 PM,53.6,51.8,94,30.07,10.0,Calm,Calm,-,N/A,,Overcast,0,2011-10-07 05:00:00
10:20 PM,53.6,51.8,94,30.07,10.0,Calm,Calm,-,N/A,,Overcast,0,2011-10-07 05:20:00
10:53 PM,53.1,51.1,93,30.07,10.0,Calm,Calm,-,N/A,,Overcast,0,2011-10-07 05:53:00
11:24 PM,53.6,51.8,94,30.07,10.0,Calm,Calm,-,0.00,Rain,Light Rain,0,2011-10-07 06:24:00
11:50 PM,51.8,51.8,100,30.06,10.0,Calm,Calm,-,0.00,,Overcast,0,2011-10-07 06:50:00
11:53 PM,52.0,51.1,97,30.07,10.0,Calm,Calm,-,0.00,,Overcast,0,2011-10-07 06:53:00